sensor_id;sensor_type;location;lat;lon;timestamp;pressure;altitude;pressure_sealevel;temperature;humidity
8294;BME280;4185;41.506;24.938;2023-02-19T00:02:07;93921.34;;;2.50;78.20
8294;BME280;4185;41.506;24.938;2023-02-19T00:04:33;93909.13;;;2.49;78.72
8294;BME280;4185;41.506;24.938;2023-02-19T00:07:00;93913.44;;;2.60;79.31
8294;BME280;4185;41.506;24.938;2023-02-19T00:09:28;93917.31;;;2.59;79.21
8294;BME280;4185;41.506;24.938;2023-02-19T00:11:55;93912.78;;;2.56;79.11
8294;BME280;4185;41.506;24.938;2023-02-19T00:14:22;93903.09;;;2.45;79.01
8294;BME280;4185;41.506;24.938;2023-02-19T00:16:48;93904.44;;;2.54;79.13
8294;BME280;4185;41.506;24.938;2023-02-19T00:19:17;93891.44;;;2.52;79.58
8294;BME280;4185;41.506;24.938;2023-02-19T00:21:44;93899.25;;;2.46;79.75
8294;BME280;4185;41.506;24.938;2023-02-19T00:24:12;93895.56;;;2.40;80.17
8294;BME280;4185;41.506;24.938;2023-02-19T00:26:41;93892.19;;;2.53;79.76
8294;BME280;4185;41.506;24.938;2023-02-19T00:29:08;93890.41;;;2.62;79.15
8294;BME280;4185;41.506;24.938;2023-02-19T00:31:37;93873.75;;;2.55;78.48
8294;BME280;4185;41.506;24.938;2023-02-19T00:34:05;93880.41;;;2.50;79.45
8294;BME280;4185;41.506;24.938;2023-02-19T00:36:33;93882.75;;;2.61;79.35
8294;BME280;4185;41.506;24.938;2023-02-19T00:39:02;93885.59;;;2.70;79.00
8294;BME280;4185;41.506;24.938;2023-02-19T00:41:29;93891.72;;;2.70;78.24
8294;BME280;4185;41.506;24.938;2023-02-19T00:44:00;93878.72;;;2.69;78.27
8294;BME280;4185;41.506;24.938;2023-02-19T00:46:28;93874.44;;;2.71;78.31
8294;BME280;4185;41.506;24.938;2023-02-19T00:48:56;93886.88;;;2.65;78.29
8294;BME280;4185;41.506;24.938;2023-02-19T00:51:25;93876.66;;;2.60;78.43
8294;BME280;4185;41.506;24.938;2023-02-19T00:53:53;93867.63;;;2.54;78.50
8294;BME280;4185;41.506;24.938;2023-02-19T00:56:20;93864.75;;;2.48;78.83
8294;BME280;4185;41.506;24.938;2023-02-19T00:58:47;93872.44;;;2.46;78.73
8294;BME280;4185;41.506;24.938;2023-02-19T01:01:16;93865.97;;;2.31;79.31
8294;BME280;4185;41.506;24.938;2023-02-19T01:03:43;93866.16;;;2.24;79.77
8294;BME280;4185;41.506;24.938;2023-02-19T01:06:13;93860.13;;;2.20;79.50
8294;BME280;4185;41.506;24.938;2023-02-19T01:08:41;93856.47;;;2.14;80.19
8294;BME280;4185;41.506;24.938;2023-02-19T01:11:08;93857.78;;;2.22;80.25
8294;BME280;4185;41.506;24.938;2023-02-19T01:13:35;93849.03;;;2.34;80.55
8294;BME280;4185;41.506;24.938;2023-02-19T01:16:03;93841.41;;;2.33;79.82
8294;BME280;4185;41.506;24.938;2023-02-19T01:18:32;93841.59;;;2.26;79.58
8294;BME280;4185;41.506;24.938;2023-02-19T01:21:04;93826.66;;;2.12;80.29
8294;BME280;4185;41.506;24.938;2023-02-19T01:23:31;93828.91;;;2.14;80.62
8294;BME280;4185;41.506;24.938;2023-02-19T01:25:58;93825.16;;;2.11;80.86
8294;BME280;4185;41.506;24.938;2023-02-19T01:28:25;93815.94;;;2.12;81.68
8294;BME280;4185;41.506;24.938;2023-02-19T01:30:51;93808.31;;;2.11;81.67
8294;BME280;4185;41.506;24.938;2023-02-19T01:33:18;93811.38;;;2.25;81.50
8294;BME280;4185;41.506;24.938;2023-02-19T01:35:47;93807.31;;;2.33;80.83
8294;BME280;4185;41.506;24.938;2023-02-19T01:38:13;93804.75;;;2.30;80.48
8294;BME280;4185;41.506;24.938;2023-02-19T01:40:40;93809.88;;;2.24;80.12
8294;BME280;4185;41.506;24.938;2023-02-19T01:43:13;93808.34;;;2.23;80.46
8294;BME280;4185;41.506;24.938;2023-02-19T01:45:42;93814.28;;;2.31;80.30
8294;BME280;4185;41.506;24.938;2023-02-19T01:48:11;93806.16;;;2.34;80.09
8294;BME280;4185;41.506;24.938;2023-02-19T01:50:43;93803.28;;;2.41;79.36
8294;BME280;4185;41.506;24.938;2023-02-19T01:53:14;93798.44;;;2.36;79.42
8294;BME280;4185;41.506;24.938;2023-02-19T01:55:43;93798.50;;;2.20;80.02
8294;BME280;4185;41.506;24.938;2023-02-19T01:58:13;93794.16;;;2.10;80.63
8294;BME280;4185;41.506;24.938;2023-02-19T02:00:40;93779.91;;;2.13;80.51
8294;BME280;4185;41.506;24.938;2023-02-19T02:03:07;93782.28;;;2.11;80.54
8294;BME280;4185;41.506;24.938;2023-02-19T02:05:41;93783.97;;;2.05;79.97
8294;BME280;4185;41.506;24.938;2023-02-19T02:08:12;93789.53;;;1.98;80.36
8294;BME280;4185;41.506;24.938;2023-02-19T02:10:57;93782.00;;;1.93;81.51
8294;BME280;4185;41.506;24.938;2023-02-19T02:13:24;93786.28;;;1.91;80.89
8294;BME280;4185;41.506;24.938;2023-02-19T02:15:58;93782.69;;;1.81;81.15
8294;BME280;4185;41.506;24.938;2023-02-19T02:18:36;93795.44;;;1.77;81.56
8294;BME280;4185;41.506;24.938;2023-02-19T02:21:31;93795.63;;;1.70;82.22
8294;BME280;4185;41.506;24.938;2023-02-19T02:24:10;93798.47;;;1.79;82.08
8294;BME280;4185;41.506;24.938;2023-02-19T02:26:50;93791.50;;;1.82;82.10
8294;BME280;4185;41.506;24.938;2023-02-19T02:32:19;93781.72;;;1.75;82.56
8294;BME280;4185;41.506;24.938;2023-02-19T02:34:49;93793.00;;;1.83;82.98
8294;BME280;4185;41.506;24.938;2023-02-19T02:37:19;93795.81;;;1.92;82.95
8294;BME280;4185;41.506;24.938;2023-02-19T02:39:47;93792.00;;;1.93;82.30
8294;BME280;4185;41.506;24.938;2023-02-19T02:42:14;93789.06;;;1.87;81.63
8294;BME280;4185;41.506;24.938;2023-02-19T02:44:53;93784.56;;;1.84;82.24
8294;BME280;4185;41.506;24.938;2023-02-19T02:47:41;93787.63;;;1.83;82.08
8294;BME280;4185;41.506;24.938;2023-02-19T02:50:13;93781.53;;;1.82;82.82
8294;BME280;4185;41.506;24.938;2023-02-19T02:52:43;93783.81;;;1.84;82.34
8294;BME280;4185;41.506;24.938;2023-02-19T02:55:30;93795.78;;;1.79;82.53
8294;BME280;4185;41.506;24.938;2023-02-19T02:58:00;93789.59;;;1.82;83.13
8294;BME280;4185;41.506;24.938;2023-02-19T03:00:28;93781.53;;;1.82;83.19
8294;BME280;4185;41.506;24.938;2023-02-19T03:03:24;93795.56;;;1.86;82.87
8294;BME280;4185;41.506;24.938;2023-02-19T03:05:55;93788.22;;;1.90;83.26
8294;BME280;4185;41.506;24.938;2023-02-19T03:08:27;93799.25;;;1.92;83.06
8294;BME280;4185;41.506;24.938;2023-02-19T03:10:59;93795.72;;;1.95;82.70
8294;BME280;4185;41.506;24.938;2023-02-19T03:13:50;93792.16;;;1.86;82.80
8294;BME280;4185;41.506;24.938;2023-02-19T03:16:36;93793.75;;;1.83;82.51
8294;BME280;4185;41.506;24.938;2023-02-19T03:19:26;93790.00;;;1.81;83.21
8294;BME280;4185;41.506;24.938;2023-02-19T03:21:57;93790.66;;;1.85;83.29
8294;BME280;4185;41.506;24.938;2023-02-19T03:24:28;93792.16;;;1.86;83.32
8294;BME280;4185;41.506;24.938;2023-02-19T03:27:13;93789.59;;;1.82;82.85
8294;BME280;4185;41.506;24.938;2023-02-19T03:29:42;93791.03;;;1.71;83.25
8294;BME280;4185;41.506;24.938;2023-02-19T03:32:13;93793.97;;;1.60;84.18
8294;BME280;4185;41.506;24.938;2023-02-19T03:34:45;93794.63;;;1.64;84.06
8294;BME280;4185;41.506;24.938;2023-02-19T03:37:17;93798.66;;;1.56;83.80
8294;BME280;4185;41.506;24.938;2023-02-19T03:39:49;93794.16;;;1.53;84.03
8294;BME280;4185;41.506;24.938;2023-02-19T03:42:22;93789.25;;;1.64;83.93
8294;BME280;4185;41.506;24.938;2023-02-19T03:44:59;93787.50;;;1.74;84.16
8294;BME280;4185;41.506;24.938;2023-02-19T03:47:32;93792.59;;;1.84;83.09
8294;BME280;4185;41.506;24.938;2023-02-19T03:50:08;93789.59;;;1.82;83.13
8294;BME280;4185;41.506;24.938;2023-02-19T03:52:44;93794.25;;;1.78;83.36
8294;BME280;4185;41.506;24.938;2023-02-19T03:55:16;93792.78;;;1.77;83.80
8294;BME280;4185;41.506;24.938;2023-02-19T03:57:46;93794.59;;;1.80;84.19
8294;BME280;4185;41.506;24.938;2023-02-19T04:00:17;93790.31;;;1.83;83.81
8294;BME280;4185;41.506;24.938;2023-02-19T04:02:52;93801.75;;;1.71;84.70
8294;BME280;4185;41.506;24.938;2023-02-19T04:05:26;93801.31;;;1.72;84.95
8294;BME280;4185;41.506;24.938;2023-02-19T04:07:58;93790.91;;;1.74;84.96
8294;BME280;4185;41.506;24.938;2023-02-19T04:10:27;93794.78;;;1.73;84.96
8294;BME280;4185;41.506;24.938;2023-02-19T04:12:57;93797.13;;;1.71;85.10
8294;BME280;4185;41.506;24.938;2023-02-19T04:15:28;93807.84;;;1.71;85.17
8294;BME280;4185;41.506;24.938;2023-02-19T04:17:59;93805.56;;;1.70;85.31
8294;BME280;4185;41.506;24.938;2023-02-19T04:20:29;93797.28;;;1.64;85.68
8294;BME280;4185;41.506;24.938;2023-02-19T04:22:57;93808.50;;;1.59;86.43
8294;BME280;4185;41.506;24.938;2023-02-19T04:25:26;93820.75;;;1.60;86.37
8294;BME280;4185;41.506;24.938;2023-02-19T04:27:54;93821.38;;;1.64;85.70
8294;BME280;4185;41.506;24.938;2023-02-19T04:30:21;93821.91;;;1.59;85.50
8294;BME280;4185;41.506;24.938;2023-02-19T04:32:48;93819.56;;;1.61;85.97
8294;BME280;4185;41.506;24.938;2023-02-19T04:35:15;93817.72;;;1.58;85.85
8294;BME280;4185;41.506;24.938;2023-02-19T04:37:43;93820.75;;;1.60;86.24
8294;BME280;4185;41.506;24.938;2023-02-19T04:40:10;93817.31;;;1.60;86.26
8294;BME280;4185;41.506;24.938;2023-02-19T04:42:37;93814.97;;;1.62;86.29
8294;BME280;4185;41.506;24.938;2023-02-19T04:45:04;93829.63;;;1.57;86.11
8294;BME280;4185;41.506;24.938;2023-02-19T04:47:31;93816.75;;;1.52;87.18
8294;BME280;4185;41.506;24.938;2023-02-19T04:49:57;93824.84;;;1.49;87.41
8294;BME280;4185;41.506;24.938;2023-02-19T04:52:24;93822.75;;;1.56;87.15
8294;BME280;4185;41.506;24.938;2023-02-19T04:54:52;93824.56;;;1.59;87.25
8294;BME280;4185;41.506;24.938;2023-02-19T04:57:19;93829.88;;;1.47;86.78
8294;BME280;4185;41.506;24.938;2023-02-19T04:59:46;93836.31;;;1.49;87.50
8294;BME280;4185;41.506;24.938;2023-02-19T05:02:13;93838.88;;;1.53;87.61
8294;BME280;4185;41.506;24.938;2023-02-19T05:04:40;93849.50;;;1.56;87.57
8294;BME280;4185;41.506;24.938;2023-02-19T05:07:07;93845.19;;;1.62;87.71
8294;BME280;4185;41.506;24.938;2023-02-19T05:09:33;93838.72;;;1.60;86.69
8294;BME280;4185;41.506;24.938;2023-02-19T05:12:02;93841.16;;;1.54;87.28
8294;BME280;4185;41.506;24.938;2023-02-19T05:14:28;93838.97;;;1.49;87.25
8294;BME280;4185;41.506;24.938;2023-02-19T05:16:55;93830.53;;;1.51;87.65
8294;BME280;4185;41.506;24.938;2023-02-19T05:19:22;93842.84;;;1.48;88.17
8294;BME280;4185;41.506;24.938;2023-02-19T05:21:49;93836.63;;;1.51;88.10
8294;BME280;4185;41.506;24.938;2023-02-19T05:24:15;93841.16;;;1.54;87.96
8294;BME280;4185;41.506;24.938;2023-02-19T05:26:42;93843.81;;;1.54;87.56
8294;BME280;4185;41.506;24.938;2023-02-19T05:29:10;93843.91;;;1.51;87.62
8294;BME280;4185;41.506;24.938;2023-02-19T05:31:37;93847.34;;;1.51;87.62
8294;BME280;4185;41.506;24.938;2023-02-19T05:34:04;93846.84;;;1.56;88.09
8294;BME280;4185;41.506;24.938;2023-02-19T05:36:31;93841.47;;;1.56;87.88
8294;BME280;4185;41.506;24.938;2023-02-19T05:38:58;93840.34;;;1.57;87.62
8294;BME280;4185;41.506;24.938;2023-02-19T05:41:26;93844.06;;;1.60;88.20
8294;BME280;4185;41.506;24.938;2023-02-19T05:43:53;93843.16;;;1.66;88.39
8294;BME280;4185;41.506;24.938;2023-02-19T05:46:24;93853.00;;;1.69;87.93
8294;BME280;4185;41.506;24.938;2023-02-19T05:48:52;93859.88;;;1.70;87.76
8294;BME280;4185;41.506;24.938;2023-02-19T05:51:20;93860.22;;;1.72;87.68
8294;BME280;4185;41.506;24.938;2023-02-19T05:53:48;93856.69;;;1.75;87.33
8294;BME280;4185;41.506;24.938;2023-02-19T05:56:34;93866.91;;;1.80;88.00
8294;BME280;4185;41.506;24.938;2023-02-19T05:59:03;93863.22;;;1.90;87.49
8294;BME280;4185;41.506;24.938;2023-02-19T06:01:32;93866.22;;;1.92;86.26
8294;BME280;4185;41.506;24.938;2023-02-19T06:03:59;93869.31;;;1.91;86.00
8294;BME280;4185;41.506;24.938;2023-02-19T06:06:26;93858.97;;;1.77;86.31
8294;BME280;4185;41.506;24.938;2023-02-19T06:08:53;93868.72;;;1.83;87.26
8294;BME280;4185;41.506;24.938;2023-02-19T06:11:20;93873.50;;;1.92;87.32
8294;BME280;4185;41.506;24.938;2023-02-19T06:13:47;93881.78;;;1.97;87.07
8294;BME280;4185;41.506;24.938;2023-02-19T06:16:15;93877.41;;;2.03;86.67
8294;BME280;4185;41.506;24.938;2023-02-19T06:18:44;93889.69;;;2.17;85.93
8294;BME280;4185;41.506;24.938;2023-02-19T06:21:11;93893.50;;;2.32;85.67
8294;BME280;4185;41.506;24.938;2023-02-19T06:23:39;93897.00;;;2.45;84.78
8294;BME280;4185;41.506;24.938;2023-02-19T06:26:07;93892.19;;;2.53;84.46
8294;BME280;4185;41.506;24.938;2023-02-19T06:28:34;93890.28;;;2.66;84.02
8294;BME280;4185;41.506;24.938;2023-02-19T06:31:01;93886.44;;;2.67;83.66
8294;BME280;4185;41.506;24.938;2023-02-19T06:33:28;93897.81;;;2.71;84.08
8294;BME280;4185;41.506;24.938;2023-02-19T06:35:59;93896.97;;;2.74;84.58
8294;BME280;4185;41.506;24.938;2023-02-19T06:38:26;93897.50;;;2.81;84.20
8294;BME280;4185;41.506;24.938;2023-02-19T06:40:54;93895.06;;;2.87;83.31
8294;BME280;4185;41.506;24.938;2023-02-19T06:43:20;93899.91;;;2.92;83.10
8294;BME280;4185;41.506;24.938;2023-02-19T06:45:47;93902.72;;;3.01;82.94
8294;BME280;4185;41.506;24.938;2023-02-19T06:48:14;93899.59;;;3.15;82.38
8294;BME280;4185;41.506;24.938;2023-02-19T06:50:41;93903.69;;;3.32;81.70
8294;BME280;4185;41.506;24.938;2023-02-19T06:53:09;93894.16;;;3.43;81.62
8294;BME280;4185;41.506;24.938;2023-02-19T06:55:36;93895.34;;;3.55;81.49
8294;BME280;4185;41.506;24.938;2023-02-19T06:58:05;93902.75;;;3.63;81.45
8294;BME280;4185;41.506;24.938;2023-02-19T07:00:31;93902.94;;;3.69;81.00
8294;BME280;4185;41.506;24.938;2023-02-19T07:02:58;93892.84;;;3.73;80.86
8294;BME280;4185;41.506;24.938;2023-02-19T07:05:25;93890.91;;;3.73;81.04
8294;BME280;4185;41.506;24.938;2023-02-19T07:07:52;93890.25;;;3.82;80.81
8294;BME280;4185;41.506;24.938;2023-02-19T07:10:20;93889.34;;;3.98;80.82
8294;BME280;4185;41.506;24.938;2023-02-19T07:12:47;93890.94;;;4.08;80.16
8294;BME280;4185;41.506;24.938;2023-02-19T07:15:14;93894.69;;;4.23;79.62
8294;BME280;4185;41.506;24.938;2023-02-19T07:17:40;93889.56;;;4.37;78.84
8294;BME280;4185;41.506;24.938;2023-02-19T07:20:07;93890.06;;;4.45;78.97
8294;BME280;4185;41.506;24.938;2023-02-19T07:22:34;93887.25;;;4.48;78.67
8294;BME280;4185;41.506;24.938;2023-02-19T07:25:01;93880.47;;;4.56;78.46
8294;BME280;4185;41.506;24.938;2023-02-19T07:27:29;93879.13;;;4.61;79.62
8294;BME280;4185;41.506;24.938;2023-02-19T07:29:56;93878.13;;;4.67;78.58
8294;BME280;4185;41.506;24.938;2023-02-19T07:32:23;93878.22;;;4.76;78.79
8294;BME280;4185;41.506;24.938;2023-02-19T07:34:50;93867.66;;;4.91;78.36
8294;BME280;4185;41.506;24.938;2023-02-19T07:37:17;93868.50;;;5.10;77.90
8294;BME280;4185;41.506;24.938;2023-02-19T07:39:44;93868.31;;;5.26;77.69
8294;BME280;4185;41.506;24.938;2023-02-19T07:42:10;93862.09;;;5.38;76.64
8294;BME280;4185;41.506;24.938;2023-02-19T07:44:38;93869.28;;;5.50;76.43
8294;BME280;4185;41.506;24.938;2023-02-19T07:47:05;93866.00;;;5.55;76.90
8294;BME280;4185;41.506;24.938;2023-02-19T07:49:32;93854.38;;;5.58;75.94
8294;BME280;4185;41.506;24.938;2023-02-19T07:51:59;93855.00;;;5.71;76.33
8294;BME280;4185;41.506;24.938;2023-02-19T07:54:26;93862.34;;;5.79;75.91
8294;BME280;4185;41.506;24.938;2023-02-19T07:56:53;93854.75;;;5.87;75.82
8294;BME280;4185;41.506;24.938;2023-02-19T07:59:20;93854.47;;;5.94;74.68
8294;BME280;4185;41.506;24.938;2023-02-19T08:01:48;93851.66;;;6.06;73.84
8294;BME280;4185;41.506;24.938;2023-02-19T08:04:47;93853.00;;;6.20;72.90
8294;BME280;4185;41.506;24.938;2023-02-19T08:07:14;93856.59;;;6.26;73.55
8294;BME280;4185;41.506;24.938;2023-02-19T08:09:41;93857.22;;;6.39;73.33
8294;BME280;4185;41.506;24.938;2023-02-19T08:12:08;93845.50;;;6.51;73.16
8294;BME280;4185;41.506;24.938;2023-02-19T08:14:54;93841.44;;;6.65;72.28
8294;BME280;4185;41.506;24.938;2023-02-19T08:17:23;93829.13;;;6.82;70.83
8294;BME280;4185;41.506;24.938;2023-02-19T08:19:50;93824.31;;;6.95;70.37
8294;BME280;4185;41.506;24.938;2023-02-19T08:22:17;93828.03;;;7.06;69.98
8294;BME280;4185;41.506;24.938;2023-02-19T08:24:43;93826.81;;;7.16;68.72
8294;BME280;4185;41.506;24.938;2023-02-19T08:27:10;93824.66;;;7.29;68.69
8294;BME280;4185;41.506;24.938;2023-02-19T08:29:37;93821.00;;;7.41;69.08
8294;BME280;4185;41.506;24.938;2023-02-19T08:32:04;93824.25;;;7.55;69.32
8294;BME280;4185;41.506;24.938;2023-02-19T08:34:33;93822.97;;;7.65;68.29
8294;BME280;4185;41.506;24.938;2023-02-19T08:37:00;93804.94;;;7.71;68.23
8294;BME280;4185;41.506;24.938;2023-02-19T08:39:27;93821.31;;;8.00;66.69
8294;BME280;4185;41.506;24.938;2023-02-19T08:41:53;93816.69;;;8.15;65.77
8294;BME280;4185;41.506;24.938;2023-02-19T08:44:20;93813.03;;;8.27;64.84
8294;BME280;4185;41.506;24.938;2023-02-19T08:46:47;93801.47;;;8.41;64.95
8294;BME280;4185;41.506;24.938;2023-02-19T08:49:13;93812.16;;;8.59;64.70
8294;BME280;4185;41.506;24.938;2023-02-19T08:51:42;93807.50;;;8.74;64.72
8294;BME280;4185;41.506;24.938;2023-02-19T08:54:09;93801.91;;;8.92;64.07
8294;BME280;4185;41.506;24.938;2023-02-19T08:56:36;93796.94;;;9.05;63.43
8294;BME280;4185;41.506;24.938;2023-02-19T08:59:02;93797.94;;;9.22;63.46
8294;BME280;4185;41.506;24.938;2023-02-19T09:01:29;93796.53;;;9.41;62.54
8294;BME280;4185;41.506;24.938;2023-02-19T09:03:56;93790.19;;;9.64;61.61
8294;BME280;4185;41.506;24.938;2023-02-19T09:06:23;93785.63;;;9.91;59.86
8294;BME280;4185;41.506;24.938;2023-02-19T09:08:51;93783.31;;;10.04;59.84
8294;BME280;4185;41.506;24.938;2023-02-19T09:11:18;93777.91;;;10.24;58.72
8294;BME280;4185;41.506;24.938;2023-02-19T09:13:44;93770.78;;;10.46;57.37
8294;BME280;4185;41.506;24.938;2023-02-19T09:16:11;93773.38;;;10.61;56.65
8294;BME280;4185;41.506;24.938;2023-02-19T09:18:38;93765.16;;;10.75;56.71
8294;BME280;4185;41.506;24.938;2023-02-19T09:21:05;93767.31;;;10.97;56.08
8294;BME280;4185;41.506;24.938;2023-02-19T09:23:32;93764.31;;;11.21;54.32
8294;BME280;4185;41.506;24.938;2023-02-19T09:26:01;93760.47;;;11.38;54.17
8294;BME280;4185;41.506;24.938;2023-02-19T09:28:31;93759.56;;;11.52;53.06
8294;BME280;4185;41.506;24.938;2023-02-19T09:31:02;93752.81;;;11.73;51.78
8294;BME280;4185;41.506;24.938;2023-02-19T09:33:30;93751.13;;;11.81;51.23
8294;BME280;4185;41.506;24.938;2023-02-19T09:35:58;93741.81;;;11.99;50.61
8294;BME280;4185;41.506;24.938;2023-02-19T09:38:25;93748.81;;;12.16;50.21
8294;BME280;4185;41.506;24.938;2023-02-19T09:40:51;93744.69;;;12.38;48.50
8294;BME280;4185;41.506;24.938;2023-02-19T09:43:21;93742.50;;;12.53;49.41
8294;BME280;4185;41.506;24.938;2023-02-19T09:45:58;93740.31;;;12.73;48.74
8294;BME280;4185;41.506;24.938;2023-02-19T09:48:27;93742.31;;;12.95;47.61
8294;BME280;4185;41.506;24.938;2023-02-19T09:50:54;93738.63;;;13.14;47.70
8294;BME280;4185;41.506;24.938;2023-02-19T09:53:24;93739.38;;;13.37;46.75
8294;BME280;4185;41.506;24.938;2023-02-19T09:55:52;93734.66;;;13.54;46.59
8294;BME280;4185;41.506;24.938;2023-02-19T09:58:25;93726.94;;;13.69;45.73
8294;BME280;4185;41.506;24.938;2023-02-19T10:00:55;93728.88;;;13.85;44.91
8294;BME280;4185;41.506;24.938;2023-02-19T10:03:26;93719.41;;;13.97;44.72
8294;BME280;4185;41.506;24.938;2023-02-19T10:05:56;93720.81;;;14.20;44.15
8294;BME280;4185;41.506;24.938;2023-02-19T10:08:24;93715.56;;;14.33;43.83
8294;BME280;4185;41.506;24.938;2023-02-19T10:10:51;93708.78;;;14.51;43.86
8294;BME280;4185;41.506;24.938;2023-02-19T10:13:20;93701.25;;;14.62;43.65
8294;BME280;4185;41.506;24.938;2023-02-19T10:15:51;93704.63;;;14.80;44.13
8294;BME280;4185;41.506;24.938;2023-02-19T10:18:21;93702.50;;;14.97;43.22
8294;BME280;4185;41.506;24.938;2023-02-19T10:20:50;93696.41;;;15.15;43.33
8294;BME280;4185;41.506;24.938;2023-02-19T10:23:18;93694.72;;;15.36;43.66
8294;BME280;4185;41.506;24.938;2023-02-19T10:25:47;93691.75;;;15.63;42.46
8294;BME280;4185;41.506;24.938;2023-02-19T10:28:16;93686.56;;;15.84;41.93
8294;BME280;4185;41.506;24.938;2023-02-19T10:30:49;93686.38;;;16.01;41.17
8294;BME280;4185;41.506;24.938;2023-02-19T10:33:16;93675.44;;;16.19;41.40
8294;BME280;4185;41.506;24.938;2023-02-19T10:35:55;93682.41;;;16.39;41.43
8294;BME280;4185;41.506;24.938;2023-02-19T10:38:25;93671.03;;;16.53;41.27
8294;BME280;4185;41.506;24.938;2023-02-19T10:40:59;93671.97;;;16.74;40.41
8294;BME280;4185;41.506;24.938;2023-02-19T10:43:29;93670.00;;;16.88;39.91
8294;BME280;4185;41.506;24.938;2023-02-19T10:46:01;93670.16;;;16.95;38.73
8294;BME280;4185;41.506;24.938;2023-02-19T10:48:31;93666.06;;;17.02;39.28
8294;BME280;4185;41.506;24.938;2023-02-19T10:51:01;93664.31;;;17.18;39.16
8294;BME280;4185;41.506;24.938;2023-02-19T10:53:44;93651.66;;;17.28;38.82
8294;BME280;4185;41.506;24.938;2023-02-19T10:56:13;93658.88;;;17.44;38.46
8294;BME280;4185;41.506;24.938;2023-02-19T10:58:41;93648.13;;;17.46;38.50
8294;BME280;4185;41.506;24.938;2023-02-19T11:01:18;93646.56;;;17.63;38.44
8294;BME280;4185;41.506;24.938;2023-02-19T11:03:46;93649.84;;;17.75;37.74
8294;BME280;4185;41.506;24.938;2023-02-19T11:06:15;93645.41;;;17.85;37.20
8294;BME280;4185;41.506;24.938;2023-02-19T11:08:48;93642.13;;;17.86;36.84
8294;BME280;4185;41.506;24.938;2023-02-19T11:11:30;93646.69;;;17.71;37.03
8294;BME280;4185;41.506;24.938;2023-02-19T11:13:59;93639.72;;;17.57;37.31
8294;BME280;4185;41.506;24.938;2023-02-19T11:16:39;93630.78;;;17.38;37.71
8294;BME280;4185;41.506;24.938;2023-02-19T11:19:21;93620.00;;;17.27;37.88
8294;BME280;4185;41.506;24.938;2023-02-19T11:21:49;93628.88;;;17.33;37.74
8294;BME280;4185;41.506;24.938;2023-02-19T11:24:23;93624.84;;;17.34;37.08
8294;BME280;4185;41.506;24.938;2023-02-19T11:26:51;93618.31;;;17.37;37.13
8294;BME280;4185;41.506;24.938;2023-02-19T11:29:25;93627.19;;;17.43;37.17
8294;BME280;4185;41.506;24.938;2023-02-19T11:31:55;93611.91;;;17.47;36.98
8294;BME280;4185;41.506;24.938;2023-02-19T11:34:25;93617.22;;;17.58;36.84
8294;BME280;4185;41.506;24.938;2023-02-19T11:37:08;93614.25;;;17.82;36.68
8294;BME280;4185;41.506;24.938;2023-02-19T11:39:35;93613.03;;;18.17;36.08
8294;BME280;4185;41.506;24.938;2023-02-19T11:42:15;93605.72;;;18.33;36.00
8294;BME280;4185;41.506;24.938;2023-02-19T11:44:58;93613.38;;;18.60;35.47
8294;BME280;4185;41.506;24.938;2023-02-19T11:47:53;93602.19;;;18.79;35.21
8294;BME280;4185;41.506;24.938;2023-02-19T11:50:25;93599.03;;;18.95;34.70
8294;BME280;4185;41.506;24.938;2023-02-19T11:53:02;93585.66;;;18.99;34.72
8294;BME280;4185;41.506;24.938;2023-02-19T11:55:48;93589.78;;;19.06;34.63
8294;BME280;4185;41.506;24.938;2023-02-19T11:58:56;93587.47;;;19.17;34.90
8294;BME280;4185;41.506;24.938;2023-02-19T12:01:41;93587.53;;;19.04;35.28
8294;BME280;4185;41.506;24.938;2023-02-19T12:04:38;93582.88;;;18.92;34.86
8294;BME280;4185;41.506;24.938;2023-02-19T12:07:22;93591.38;;;19.01;35.24
8294;BME280;4185;41.506;24.938;2023-02-19T12:10:02;93583.13;;;19.01;35.21
8294;BME280;4185;41.506;24.938;2023-02-19T12:12:44;93583.94;;;19.30;34.84
8294;BME280;4185;41.506;24.938;2023-02-19T12:15:39;93579.75;;;19.65;34.47
8294;BME280;4185;41.506;24.938;2023-02-19T12:21:22;93563.22;;;19.65;34.68
8294;BME280;4185;41.506;24.938;2023-02-19T12:24:12;93567.06;;;19.62;34.87
8294;BME280;4185;41.506;24.938;2023-02-19T12:26:46;93558.38;;;19.86;35.00
8294;BME280;4185;41.506;24.938;2023-02-19T12:29:37;93552.81;;;20.14;34.47
8294;BME280;4185;41.506;24.938;2023-02-19T12:35:33;93550.34;;;20.53;33.84
8294;BME280;4185;41.506;24.938;2023-02-19T12:38:14;93560.91;;;20.85;33.82
8294;BME280;4185;41.506;24.938;2023-02-19T12:43:40;93571.56;;;20.74;33.95
8294;BME280;4185;41.506;24.938;2023-02-19T12:46:13;93556.25;;;20.65;34.23
8294;BME280;4185;41.506;24.938;2023-02-19T12:48:49;93546.00;;;20.88;33.96
8294;BME280;4185;41.506;24.938;2023-02-19T12:51:21;93540.91;;;21.07;34.03
8294;BME280;4185;41.506;24.938;2023-02-19T12:53:53;93532.78;;;21.02;33.48
8294;BME280;4185;41.506;24.938;2023-02-19T12:56:25;93542.16;;;21.21;33.64
8294;BME280;4185;41.506;24.938;2023-02-19T12:59:00;93539.75;;;21.40;33.51
8294;BME280;4185;41.506;24.938;2023-02-19T13:01:33;93541.59;;;21.23;33.73
8294;BME280;4185;41.506;24.938;2023-02-19T13:04:15;93537.75;;;21.18;33.59
8294;BME280;4185;41.506;24.938;2023-02-19T13:06:59;93528.75;;;21.10;33.66
8294;BME280;4185;41.506;24.938;2023-02-19T13:09:33;93534.06;;;21.16;33.49
8294;BME280;4185;41.506;24.938;2023-02-19T13:12:05;93532.41;;;21.20;33.41
8294;BME280;4185;41.506;24.938;2023-02-19T13:14:35;93537.19;;;21.20;33.20
8294;BME280;4185;41.506;24.938;2023-02-19T13:19:55;93524.47;;;21.24;33.45
8294;BME280;4185;41.506;24.938;2023-02-19T13:22:29;93515.47;;;21.16;33.55
8294;BME280;4185;41.506;24.938;2023-02-19T13:25:17;93518.97;;;21.09;33.67
8294;BME280;4185;41.506;24.938;2023-02-19T13:28:15;93514.75;;;21.08;34.01
8294;BME280;4185;41.506;24.938;2023-02-19T13:31:09;93513.66;;;21.04;33.69
8294;BME280;4185;41.506;24.938;2023-02-19T13:33:46;93505.16;;;21.02;33.98
8294;BME280;4185;41.506;24.938;2023-02-19T13:36:22;93503.66;;;20.93;33.89
8294;BME280;4185;41.506;24.938;2023-02-19T13:39:14;93501.84;;;20.88;33.88
8294;BME280;4185;41.506;24.938;2023-02-19T13:41:53;93487.47;;;20.82;33.86
8294;BME280;4185;41.506;24.938;2023-02-19T13:44:22;93489.88;;;20.93;33.95
8294;BME280;4185;41.506;24.938;2023-02-19T13:46:50;93498.00;;;20.99;34.08
8294;BME280;4185;41.506;24.938;2023-02-19T13:52:42;93492.25;;;20.97;34.43
8294;BME280;4185;41.506;24.938;2023-02-19T13:55:47;93493.72;;;21.13;34.32
8294;BME280;4185;41.506;24.938;2023-02-19T13:58:39;93500.13;;;21.53;33.75